sensor_id;sensor_type;location;lat;lon;timestamp;pressure;altitude;pressure_sealevel;temperature;humidity
60852;BME280;48553;50.766;2.900;2024-02-21T00:02:45;101571.47;;;8.46;100.00
60852;BME280;48553;50.766;2.900;2024-02-21T00:05:46;101570.94;;;8.44;100.00
60852;BME280;48553;50.766;2.900;2024-02-21T00:08:46;101568.81;;;8.41;100.00
60852;BME280;48553;50.766;2.900;2024-02-21T00:11:47;101570.44;;;8.42;100.00
60852;BME280;48553;50.766;2.900;2024-02-21T00:14:47;101559.81;;;8.41;100.00
60852;BME280;48553;50.766;2.900;2024-02-21T00:17:48;101565.28;;;8.41;100.00
60852;BME280;48553;50.766;2.900;2024-02-21T00:20:49;101553.03;;;8.38;100.00
60852;BME280;48553;50.766;2.900;2024-02-21T00:23:49;101551.63;;;8.41;100.00
60852;BME280;48553;50.766;2.900;2024-02-21T00:26:50;101552.19;;;8.37;100.00
60852;BME280;48553;50.766;2.900;2024-02-21T00:29:51;101546.72;;;8.37;100.00
60852;BME280;48553;50.766;2.900;2024-02-21T00:32:51;101554.91;;;8.37;100.00
60852;BME280;48553;50.766;2.900;2024-02-21T00:35:52;101547.03;;;8.36;100.00
60852;BME280;48553;50.766;2.900;2024-02-21T00:38:52;101549.44;;;8.37;100.00
60852;BME280;48553;50.766;2.900;2024-02-21T00:41:52;101539.16;;;8.34;100.00
60852;BME280;48553;50.766;2.900;2024-02-21T00:44:53;101529.03;;;8.35;100.00
60852;BME280;48553;50.766;2.900;2024-02-21T00:47:54;101521.94;;;8.34;100.00
60852;BME280;48553;50.766;2.900;2024-02-21T00:50:54;101511.84;;;8.34;100.00
60852;BME280;48553;50.766;2.900;2024-02-21T00:53:54;101494.31;;;8.35;100.00
60852;BME280;48553;50.766;2.900;2024-02-21T00:56:55;101485.66;;;8.33;100.00
60852;BME280;48553;50.766;2.900;2024-02-21T00:59:55;101473.88;;;8.33;100.00
60852;BME280;48553;50.766;2.900;2024-02-21T01:02:56;101480.78;;;8.30;100.00
60852;BME280;48553;50.766;2.900;2024-02-21T01:05:56;101486.53;;;8.29;100.00
60852;BME280;48553;50.766;2.900;2024-02-21T01:08:57;101488.16;;;8.30;100.00
60852;BME280;48553;50.766;2.900;2024-02-21T01:11:57;101476.44;;;8.29;100.00
60852;BME280;48553;50.766;2.900;2024-02-21T01:14:58;101474.28;;;8.26;100.00
60852;BME280;48553;50.766;2.900;2024-02-21T01:17:58;101473.47;;;8.26;100.00
60852;BME280;48553;50.766;2.900;2024-02-21T01:20:58;101473.47;;;8.26;100.00
60852;BME280;48553;50.766;2.900;2024-02-21T01:23:59;101465.00;;;8.27;100.00
60852;BME280;48553;50.766;2.900;2024-02-21T01:26:59;101464.25;;;8.22;100.00
60852;BME280;48553;50.766;2.900;2024-02-21T01:30:00;101464.47;;;8.25;100.00
60852;BME280;48553;50.766;2.900;2024-02-21T01:33:00;101454.66;;;8.24;100.00
60852;BME280;48553;50.766;2.900;2024-02-21T01:36:02;101467.50;;;8.24;100.00
60852;BME280;48553;50.766;2.900;2024-02-21T01:39:02;101457.19;;;8.21;100.00
60852;BME280;48553;50.766;2.900;2024-02-21T01:42:03;101459.31;;;8.24;100.00
60852;BME280;48553;50.766;2.900;2024-02-21T01:45:04;101451.44;;;8.22;100.00
60852;BME280;48553;50.766;2.900;2024-02-21T01:48:05;101449.81;;;8.21;100.00
60852;BME280;48553;50.766;2.900;2024-02-21T01:51:05;101450.63;;;8.22;100.00
60852;BME280;48553;50.766;2.900;2024-02-21T01:54:06;101448.41;;;8.24;100.00
60852;BME280;48553;50.766;2.900;2024-02-21T01:57:06;101442.13;;;8.23;100.00
60852;BME280;48553;50.766;2.900;2024-02-21T02:00:09;101433.94;;;8.23;100.00
60852;BME280;48553;50.766;2.900;2024-02-21T02:03:10;101417.56;;;8.23;100.00
60852;BME280;48553;50.766;2.900;2024-02-21T02:06:16;101423.00;;;8.23;100.00
60852;BME280;48553;50.766;2.900;2024-02-21T02:09:17;101415.63;;;8.24;100.00
60852;BME280;48553;50.766;2.900;2024-02-21T02:12:17;101414.53;;;8.25;100.00
60852;BME280;48553;50.766;2.900;2024-02-21T02:15:18;101410.69;;;8.26;100.00
60852;BME280;48553;50.766;2.900;2024-02-21T02:18:19;101397.03;;;8.26;100.00
60852;BME280;48553;50.766;2.900;2024-02-21T02:21:29;101398.94;;;8.25;100.00
60852;BME280;48553;50.766;2.900;2024-02-21T02:24:30;101406.34;;;8.25;100.00
60852;BME280;48553;50.766;2.900;2024-02-21T02:27:30;101404.41;;;8.25;100.00
60852;BME280;48553;50.766;2.900;2024-02-21T02:30:37;101402.19;;;8.27;100.00
60852;BME280;48553;50.766;2.900;2024-02-21T02:33:37;101397.53;;;8.28;100.00
60852;BME280;48553;50.766;2.900;2024-02-21T02:36:38;101388.81;;;8.26;100.00
60852;BME280;48553;50.766;2.900;2024-02-21T02:39:38;101385.81;;;8.27;100.00
60852;BME280;48553;50.766;2.900;2024-02-21T02:42:38;101373.25;;;8.26;100.00
60852;BME280;48553;50.766;2.900;2024-02-21T02:45:39;101376.81;;;8.27;100.00
60852;BME280;48553;50.766;2.900;2024-02-21T02:48:39;101362.03;;;8.28;100.00
60852;BME280;48553;50.766;2.900;2024-02-21T02:51:43;101357.38;;;8.28;100.00
60852;BME280;48553;50.766;2.900;2024-02-21T02:54:44;101351.09;;;8.28;100.00
60852;BME280;48553;50.766;2.900;2024-02-21T02:57:45;101338.25;;;8.28;100.00
60852;BME280;48553;50.766;2.900;2024-02-21T03:00:45;101339.38;;;8.27;100.00
60852;BME280;48553;50.766;2.900;2024-02-21T03:03:46;101333.41;;;8.25;100.00
60852;BME280;48553;50.766;2.900;2024-02-21T03:06:47;101327.31;;;8.28;100.00
60852;BME280;48553;50.766;2.900;2024-02-21T03:09:48;101326.03;;;8.26;100.00
60852;BME280;48553;50.766;2.900;2024-02-21T03:12:48;101317.53;;;8.27;100.00
60852;BME280;48553;50.766;2.900;2024-02-21T03:15:48;101317.22;;;8.29;100.00
60852;BME280;48553;50.766;2.900;2024-02-21T03:18:49;101314.97;;;8.31;100.00
60852;BME280;48553;50.766;2.900;2024-02-21T03:21:49;101312.88;;;8.28;100.00
60852;BME280;48553;50.766;2.900;2024-02-21T03:24:50;101305.81;;;8.27;100.00
60852;BME280;48553;50.766;2.900;2024-02-21T03:27:50;101311.28;;;8.27;100.00
60852;BME280;48553;50.766;2.900;2024-02-21T03:30:51;101307.41;;;8.28;100.00
60852;BME280;48553;50.766;2.900;2024-02-21T03:33:52;101302.25;;;8.26;100.00
60852;BME280;48553;50.766;2.900;2024-02-21T03:36:52;101297.28;;;8.28;100.00
60852;BME280;48553;50.766;2.900;2024-02-21T03:39:53;101303.56;;;8.29;100.00
60852;BME280;48553;50.766;2.900;2024-02-21T03:42:53;101300.81;;;8.29;100.00
60852;BME280;48553;50.766;2.900;2024-02-21T03:45:54;101305.47;;;8.28;100.00
60852;BME280;48553;50.766;2.900;2024-02-21T03:48:54;101300.03;;;8.28;100.00
60852;BME280;48553;50.766;2.900;2024-02-21T03:51:55;101292.97;;;8.27;100.00
60852;BME280;48553;50.766;2.900;2024-02-21T03:54:55;101299.22;;;8.28;100.00
60852;BME280;48553;50.766;2.900;2024-02-21T03:57:56;101296.78;;;8.26;100.00
60852;BME280;48553;50.766;2.900;2024-02-21T04:00:56;101298.41;;;8.27;100.00
60852;BME280;48553;50.766;2.900;2024-02-21T04:03:57;101297.13;;;8.25;100.00
60852;BME280;48553;50.766;2.900;2024-02-21T04:06:57;101287.50;;;8.27;100.00
60852;BME280;48553;50.766;2.900;2024-02-21T04:09:58;101283.97;;;8.27;100.00
60852;BME280;48553;50.766;2.900;2024-02-21T04:12:58;101281.53;;;8.25;100.00
60852;BME280;48553;50.766;2.900;2024-02-21T04:15:59;101276.06;;;8.25;100.00
60852;BME280;48553;50.766;2.900;2024-02-21T04:19:01;101273.34;;;8.25;100.00
60852;BME280;48553;50.766;2.900;2024-02-21T04:22:02;101274.94;;;8.26;100.00
60852;BME280;48553;50.766;2.900;2024-02-21T04:25:03;101270.31;;;8.27;100.00
60852;BME280;48553;50.766;2.900;2024-02-21T04:28:03;101268.69;;;8.26;100.00
60852;BME280;48553;50.766;2.900;2024-02-21T04:31:04;101265.16;;;8.25;100.00
60852;BME280;48553;50.766;2.900;2024-02-21T04:34:06;101242.19;;;8.26;100.00
60852;BME280;48553;50.766;2.900;2024-02-21T04:37:06;101236.22;;;8.24;100.00
60852;BME280;48553;50.766;2.900;2024-02-21T04:40:07;101239.44;;;8.26;100.00
60852;BME280;48553;50.766;2.900;2024-02-21T04:43:08;101236.72;;;8.26;100.00
60852;BME280;48553;50.766;2.900;2024-02-21T04:46:08;101234.31;;;8.25;100.00
60852;BME280;48553;50.766;2.900;2024-02-21T04:49:10;101233.47;;;8.24;100.00
60852;BME280;48553;50.766;2.900;2024-02-21T04:52:10;101228.53;;;8.26;100.00
60852;BME280;48553;50.766;2.900;2024-02-21T04:55:10;101217.94;;;8.25;100.00
60852;BME280;48553;50.766;2.900;2024-02-21T04:58:11;101218.72;;;8.25;100.00
60852;BME280;48553;50.766;2.900;2024-02-21T05:01:12;101204.28;;;8.25;100.00
60852;BME280;48553;50.766;2.900;2024-02-21T05:04:12;101201.84;;;8.23;100.00
60852;BME280;48553;50.766;2.900;2024-02-21T05:07:13;101205.06;;;8.25;100.00
60852;BME280;48553;50.766;2.900;2024-02-21T05:10:13;101198.81;;;8.25;100.00
60852;BME280;48553;50.766;2.900;2024-02-21T05:13:14;101191.41;;;8.25;100.00
60852;BME280;48553;50.766;2.900;2024-02-21T05:16:15;101192.06;;;8.22;100.00
60852;BME280;48553;50.766;2.900;2024-02-21T05:19:16;101197.19;;;8.24;100.00
60852;BME280;48553;50.766;2.900;2024-02-21T05:22:16;101189.31;;;8.22;100.00
60852;BME280;48553;50.766;2.900;2024-02-21T05:25:17;101177.56;;;8.22;100.00
60852;BME280;48553;50.766;2.900;2024-02-21T05:28:17;101175.66;;;8.22;100.00
60852;BME280;48553;50.766;2.900;2024-02-21T05:31:18;101176.47;;;8.23;100.00
60852;BME280;48553;50.766;2.900;2024-02-21T05:34:20;101169.38;;;8.22;100.00
60852;BME280;48553;50.766;2.900;2024-02-21T05:37:20;101158.16;;;8.23;100.00
60852;BME280;48553;50.766;2.900;2024-02-21T05:40:21;101154.94;;;8.21;100.00
60852;BME280;48553;50.766;2.900;2024-02-21T05:43:21;101145.94;;;8.21;100.00
60852;BME280;48553;50.766;2.900;2024-02-21T05:46:21;101145.63;;;8.22;100.00
60852;BME280;48553;50.766;2.900;2024-02-21T05:49:22;101138.53;;;8.21;100.00
60852;BME280;48553;50.766;2.900;2024-02-21T05:52:22;101139.19;;;8.18;100.00
60852;BME280;48553;50.766;2.900;2024-02-21T05:55:23;101144.00;;;8.21;100.00
60852;BME280;48553;50.766;2.900;2024-02-21T05:58:24;101141.91;;;8.18;100.00
60852;BME280;48553;50.766;2.900;2024-02-21T06:01:24;101139.19;;;8.18;100.00
60852;BME280;48553;50.766;2.900;2024-02-21T06:04:25;101141.09;;;8.18;100.00
60852;BME280;48553;50.766;2.900;2024-02-21T06:07:26;101134.81;;;8.17;100.00
60852;BME280;48553;50.766;2.900;2024-02-21T06:10:26;101130.47;;;8.16;100.00
60852;BME280;48553;50.766;2.900;2024-02-21T06:13:27;101126.94;;;8.15;100.00
60852;BME280;48553;50.766;2.900;2024-02-21T06:16:27;101116.84;;;8.16;100.00
60852;BME280;48553;50.766;2.900;2024-02-21T06:19:28;101107.50;;;8.17;100.00
60852;BME280;48553;50.766;2.900;2024-02-21T06:22:29;101092.25;;;8.16;100.00
60852;BME280;48553;50.766;2.900;2024-02-21T06:25:30;101093.84;;;8.17;100.00
60852;BME280;48553;50.766;2.900;2024-02-21T06:28:30;101096.59;;;8.17;100.00
60852;BME280;48553;50.766;2.900;2024-02-21T06:31:31;101084.06;;;8.16;100.00
60852;BME280;48553;50.766;2.900;2024-02-21T06:34:32;101093.34;;;8.15;100.00
60852;BME280;48553;50.766;2.900;2024-02-21T06:37:32;101086.00;;;8.15;100.00
60852;BME280;48553;50.766;2.900;2024-02-21T06:40:33;101075.09;;;8.15;100.00
60852;BME280;48553;50.766;2.900;2024-02-21T06:43:38;101071.84;;;8.13;100.00
60852;BME280;48553;50.766;2.900;2024-02-21T06:46:39;101073.78;;;8.13;100.00
60852;BME280;48553;50.766;2.900;2024-02-21T06:49:39;101073.44;;;8.14;100.00
60852;BME280;48553;50.766;2.900;2024-02-21T06:52:40;101054.66;;;8.13;100.00
60852;BME280;48553;50.766;2.900;2024-02-21T06:55:40;101056.56;;;8.12;100.00
60852;BME280;48553;50.766;2.900;2024-02-21T06:58:40;101059.81;;;8.14;100.00
60852;BME280;48553;50.766;2.900;2024-02-21T07:01:48;101067.50;;;8.12;100.00
60852;BME280;48553;50.766;2.900;2024-02-21T07:04:49;101072.16;;;8.12;100.00
60852;BME280;48553;50.766;2.900;2024-02-21T07:07:50;101065.09;;;8.11;100.00
60852;BME280;48553;50.766;2.900;2024-02-21T07:10:50;101052.25;;;8.11;100.00
60852;BME280;48553;50.766;2.900;2024-02-21T07:13:51;101037.78;;;8.11;100.00
60852;BME280;48553;50.766;2.900;2024-02-21T07:16:52;101034.25;;;8.10;100.00
60852;BME280;48553;50.766;2.900;2024-02-21T07:19:53;101024.94;;;8.11;100.00
60852;BME280;48553;50.766;2.900;2024-02-21T07:22:57;101030.09;;;8.13;100.00
60852;BME280;48553;50.766;2.900;2024-02-21T07:25:57;101024.94;;;8.11;100.00
60852;BME280;48553;50.766;2.900;2024-02-21T07:28:58;101027.03;;;8.14;100.00
60852;BME280;48553;50.766;2.900;2024-02-21T07:31:58;101023.31;;;8.10;100.00
60852;BME280;48553;50.766;2.900;2024-02-21T07:34:58;101011.28;;;8.11;100.00
60852;BME280;48553;50.766;2.900;2024-02-21T07:37:59;101004.72;;;8.12;100.00
60852;BME280;48553;50.766;2.900;2024-02-21T07:40:59;100992.69;;;8.13;100.00
60852;BME280;48553;50.766;2.900;2024-02-21T07:44:00;100982.06;;;8.12;100.00
60852;BME280;48553;50.766;2.900;2024-02-21T07:47:00;100960.22;;;8.12;100.00
60852;BME280;48553;50.766;2.900;2024-02-21T07:50:02;100953.66;;;8.13;100.00
60852;BME280;48553;50.766;2.900;2024-02-21T07:53:02;100949.00;;;8.13;100.00
60852;BME280;48553;50.766;2.900;2024-02-21T07:56:03;100932.13;;;8.11;100.00
60852;BME280;48553;50.766;2.900;2024-02-21T07:59:04;100934.88;;;8.11;100.00
60852;BME280;48553;50.766;2.900;2024-02-21T08:02:05;100933.72;;;8.12;100.00
60852;BME280;48553;50.766;2.900;2024-02-21T08:05:07;100943.53;;;8.13;100.00
60852;BME280;48553;50.766;2.900;2024-02-21T08:08:07;100951.41;;;8.15;100.00
60852;BME280;48553;50.766;2.900;2024-02-21T08:11:08;100933.44;;;8.14;100.00
60852;BME280;48553;50.766;2.900;2024-02-21T08:14:08;100946.28;;;8.13;100.00
60852;BME280;48553;50.766;2.900;2024-02-21T08:17:09;100941.91;;;8.12;100.00
60852;BME280;48553;50.766;2.900;2024-02-21T08:20:10;100937.75;;;8.15;100.00
60852;BME280;48553;50.766;2.900;2024-02-21T08:23:10;100918.63;;;8.15;100.00
60852;BME280;48553;50.766;2.900;2024-02-21T08:26:11;100906.63;;;8.16;100.00
60852;BME280;48553;50.766;2.900;2024-02-21T08:29:11;100894.06;;;8.15;100.00
60852;BME280;48553;50.766;2.900;2024-02-21T08:32:12;100872.56;;;8.13;100.00
60852;BME280;48553;50.766;2.900;2024-02-21T08:35:13;100877.69;;;8.15;100.00
60852;BME280;48553;50.766;2.900;2024-02-21T08:38:13;100878.19;;;8.17;100.00
60852;BME280;48553;50.766;2.900;2024-02-21T08:41:14;100888.00;;;8.18;100.00
60852;BME280;48553;50.766;2.900;2024-02-21T08:44:14;100863.44;;;8.18;100.00
60852;BME280;48553;50.766;2.900;2024-02-21T08:47:15;100851.06;;;8.21;100.00
60852;BME280;48553;50.766;2.900;2024-02-21T08:50:15;100856.34;;;8.17;100.00
60852;BME280;48553;50.766;2.900;2024-02-21T08:53:16;100856.22;;;8.22;100.00
60852;BME280;48553;50.766;2.900;2024-02-21T08:56:16;100847.53;;;8.20;100.00
60852;BME280;48553;50.766;2.900;2024-02-21T08:59:16;100833.25;;;8.23;100.00
60852;BME280;48553;50.766;2.900;2024-02-21T09:02:17;100832.09;;;8.24;100.00
60852;BME280;48553;50.766;2.900;2024-02-21T09:05:17;100815.41;;;8.26;100.00
60852;BME280;48553;50.766;2.900;2024-02-21T09:08:18;100813.19;;;8.28;100.00
60852;BME280;48553;50.766;2.900;2024-02-21T09:11:19;100811.25;;;8.28;100.00
60852;BME280;48553;50.766;2.900;2024-02-21T09:14:19;100811.25;;;8.28;100.00
60852;BME280;48553;50.766;2.900;2024-02-21T09:17:20;100792.94;;;8.29;100.00
60852;BME280;48553;50.766;2.900;2024-02-21T09:20:20;100788.28;;;8.29;100.00
60852;BME280;48553;50.766;2.900;2024-02-21T09:23:24;100770.78;;;8.30;100.00
60852;BME280;48553;50.766;2.900;2024-02-21T09:26:24;100780.59;;;8.31;100.00
60852;BME280;48553;50.766;2.900;2024-02-21T09:29:25;100775.44;;;8.30;100.00
60852;BME280;48553;50.766;2.900;2024-02-21T09:32:25;100767.25;;;8.30;100.00
60852;BME280;48553;50.766;2.900;2024-02-21T09:35:27;100768.84;;;8.31;100.00
60852;BME280;48553;50.766;2.900;2024-02-21T09:38:28;100749.72;;;8.31;100.00
60852;BME280;48553;50.766;2.900;2024-02-21T09:41:29;100762.28;;;8.32;100.00
60852;BME280;48553;50.766;2.900;2024-02-21T09:44:33;100756.50;;;8.33;100.00
60852;BME280;48553;50.766;2.900;2024-02-21T09:48:08;100749.09;;;8.34;100.00
60852;BME280;48553;50.766;2.900;2024-02-21T09:51:11;100749.91;;;8.34;100.00
60852;BME280;48553;50.766;2.900;2024-02-21T09:54:14;100725.50;;;8.38;100.00
60852;BME280;48553;50.766;2.900;2024-02-21T09:57:15;100733.69;;;8.38;100.00
60852;BME280;48553;50.766;2.900;2024-02-21T10:00:16;100720.03;;;8.38;100.00
60852;BME280;48553;50.766;2.900;2024-02-21T10:03:21;100723.56;;;8.39;100.00
60852;BME280;48553;50.766;2.900;2024-02-21T10:06:22;100717.78;;;8.40;100.00
60852;BME280;48553;50.766;2.900;2024-02-21T10:09:27;100712.34;;;8.40;100.00
60852;BME280;48553;50.766;2.900;2024-02-21T10:12:28;100713.16;;;8.41;100.00
60852;BME280;48553;50.766;2.900;2024-02-21T10:15:28;100713.16;;;8.41;100.00
60852;BME280;48553;50.766;2.900;2024-02-21T10:18:29;100713.16;;;8.41;100.00
60852;BME280;48553;50.766;2.900;2024-02-21T10:21:29;100691.31;;;8.41;100.00
60852;BME280;48553;50.766;2.900;2024-02-21T10:24:31;100691.78;;;8.43;100.00
60852;BME280;48553;50.766;2.900;2024-02-21T10:27:32;100674.28;;;8.44;100.00
60852;BME280;48553;50.766;2.900;2024-02-21T10:30:33;100669.13;;;8.42;100.00
60852;BME280;48553;50.766;2.900;2024-02-21T10:33:33;100670.41;;;8.45;100.00
60852;BME280;48553;50.766;2.900;2024-02-21T10:36:33;100664.31;;;8.48;100.00
60852;BME280;48553;50.766;2.900;2024-02-21T10:39:37;100661.56;;;8.48;100.00
60852;BME280;48553;50.766;2.900;2024-02-21T10:42:38;100655.63;;;8.46;100.00
60852;BME280;48553;50.766;2.900;2024-02-21T10:45:41;100635.25;;;8.43;100.00
60852;BME280;48553;50.766;2.900;2024-02-21T10:48:43;100639.56;;;8.44;100.00
60852;BME280;48553;50.766;2.900;2024-02-21T10:55:04;100635.84;;;8.49;100.00
60852;BME280;48553;50.766;2.900;2024-02-21T10:58:10;100631.06;;;8.46;100.00
60852;BME280;48553;50.766;2.900;2024-02-21T11:01:12;100619.00;;;8.47;100.00
60852;BME280;48553;50.766;2.900;2024-02-21T11:04:15;100604.84;;;8.45;100.00
60852;BME280;48553;50.766;2.900;2024-02-21T11:07:16;100608.06;;;8.47;100.00
60852;BME280;48553;50.766;2.900;2024-02-21T11:10:23;100598.75;;;8.48;100.00
60852;BME280;48553;50.766;2.900;2024-02-21T11:13:30;100588.94;;;8.47;100.00
60852;BME280;48553;50.766;2.900;2024-02-21T11:16:37;100583.97;;;8.49;100.00
60852;BME280;48553;50.766;2.900;2024-02-21T11:19:41;100582.06;;;8.49;100.00
60852;BME280;48553;50.766;2.900;2024-02-21T11:22:42;100563.38;;;8.51;100.00
60852;BME280;48553;50.766;2.900;2024-02-21T11:25:43;100562.94;;;8.49;100.00
60852;BME280;48553;50.766;2.900;2024-02-21T11:28:43;100558.75;;;8.52;100.00
60852;BME280;48553;50.766;2.900;2024-02-21T11:31:44;100542.84;;;8.54;100.00
60852;BME280;48553;50.766;2.900;2024-02-21T11:34:57;100538.66;;;8.56;100.00
60852;BME280;48553;50.766;2.900;2024-02-21T11:38:11;100520.00;;;8.59;100.00
60852;BME280;48553;50.766;2.900;2024-02-21T11:41:16;100516.59;;;8.62;100.00
60852;BME280;48553;50.766;2.900;2024-02-21T11:44:16;100511.31;;;8.65;100.00
60852;BME280;48553;50.766;2.900;2024-02-21T11:47:17;100501.97;;;8.66;100.00
60852;BME280;48553;50.766;2.900;2024-02-21T11:50:17;100480.25;;;8.70;100.00
60852;BME280;48553;50.766;2.900;2024-02-21T11:53:18;100467.41;;;8.70;100.00
60852;BME280;48553;50.766;2.900;2024-02-21T11:56:20;100453.84;;;8.74;100.00
60852;BME280;48553;50.766;2.900;2024-02-21T11:59:20;100455.13;;;8.76;100.00
60852;BME280;48553;50.766;2.900;2024-02-21T12:02:21;100423.97;;;8.77;100.00
60852;BME280;48553;50.766;2.900;2024-02-21T12:05:21;100432.16;;;8.77;100.00
60852;BME280;48553;50.766;2.900;2024-02-21T12:08:22;100413.50;;;8.80;100.00
60852;BME280;48553;50.766;2.900;2024-02-21T12:11:22;100399.84;;;8.80;100.00
60852;BME280;48553;50.766;2.900;2024-02-21T12:14:24;100390.50;;;8.81;100.00
60852;BME280;48553;50.766;2.900;2024-02-21T12:17:25;100388.91;;;8.80;100.00
60852;BME280;48553;50.766;2.900;2024-02-21T12:20:26;100377.66;;;8.81;100.00
60852;BME280;48553;50.766;2.900;2024-02-21T12:23:27;100365.25;;;8.84;100.00
60852;BME280;48553;50.766;2.900;2024-02-21T12:26:27;100365.59;;;8.82;100.00
60852;BME280;48553;50.766;2.900;2024-02-21T12:29:28;100362.38;;;8.80;100.00
60852;BME280;48553;50.766;2.900;2024-02-21T12:32:30;100336.53;;;8.77;100.00
60852;BME280;48553;50.766;2.900;2024-02-21T12:35:30;100347.13;;;8.79;100.00
60852;BME280;48553;50.766;2.900;2024-02-21T12:38:33;100324.59;;;8.82;100.00
60852;BME280;48553;50.766;2.900;2024-02-21T12:41:33;100324.91;;;8.81;100.00
60852;BME280;48553;50.766;2.900;2024-02-21T12:44:35;100324.13;;;8.80;100.00
60852;BME280;48553;50.766;2.900;2024-02-21T12:47:36;100307.25;;;8.78;100.00
60852;BME280;48553;50.766;2.900;2024-02-21T12:50:36;100291.66;;;8.78;100.00
60852;BME280;48553;50.766;2.900;2024-02-21T12:53:37;100269.81;;;8.78;100.00
60852;BME280;48553;50.766;2.900;2024-02-21T12:56:37;100265.47;;;8.77;100.00
60852;BME280;48553;50.766;2.900;2024-02-21T12:59:38;100257.28;;;8.77;100.00
60852;BME280;48553;50.766;2.900;2024-02-21T13:02:38;100240.09;;;8.77;100.00
60852;BME280;48553;50.766;2.900;2024-02-21T13:05:38;100232.69;;;8.77;100.00
60852;BME280;48553;50.766;2.900;2024-02-21T13:08:39;100228.03;;;8.78;100.00
60852;BME280;48553;50.766;2.900;2024-02-21T13:11:41;100220.16;;;8.76;100.00
60852;BME280;48553;50.766;2.900;2024-02-21T13:14:42;100203.75;;;8.76;100.00
60852;BME280;48553;50.766;2.900;2024-02-21T13:17:44;100183.84;;;8.76;100.00
60852;BME280;48553;50.766;2.900;2024-02-21T13:20:44;100169.84;;;8.77;100.00
60852;BME280;48553;50.766;2.900;2024-02-21T13:23:45;100165.88;;;8.75;100.00
60852;BME280;48553;50.766;2.900;2024-02-21T13:26:45;100145.94;;;8.74;100.00
60852;BME280;48553;50.766;2.900;2024-02-21T13:29:46;100155.41;;;8.77;100.00
60852;BME280;48553;50.766;2.900;2024-02-21T13:32:46;100128.41;;;8.75;100.00
60852;BME280;48553;50.766;2.900;2024-02-21T13:35:47;100115.09;;;8.74;100.00
60852;BME280;48553;50.766;2.900;2024-02-21T13:38:47;100119.53;;;8.78;100.00
60852;BME280;48553;50.766;2.900;2024-02-21T13:41:48;100101.56;;;8.77;100.00
60852;BME280;48553;50.766;2.900;2024-02-21T13:44:48;100101.09;;;8.75;100.00
60852;BME280;48553;50.766;2.900;2024-02-21T13:47:48;100089.72;;;8.73;100.00
60852;BME280;48553;50.766;2.900;2024-02-21T13:50:49;100088.59;;;8.74;100.00
60852;BME280;48553;50.766;2.900;2024-02-21T13:53:49;100073.78;;;8.75;100.00
60852;BME280;48553;50.766;2.900;2024-02-21T13:56:50;100064.00;;;8.74;100.00
60852;BME280;48553;50.766;2.900;2024-02-21T13:59:50;100058.88;;;8.73;100.00
60852;BME280;48553;50.766;2.900;2024-02-21T14:02:51;100051.47;;;8.73;100.00
60852;BME280;48553;50.766;2.900;2024-02-21T14:05:52;100037.34;;;8.71;100.00
60852;BME280;48553;50.766;2.900;2024-02-21T14:08:53;100013.22;;;8.73;100.00
60852;BME280;48553;50.766;2.900;2024-02-21T14:11:54;100028.91;;;8.76;100.00
60852;BME280;48553;50.766;2.900;2024-02-21T14:14:54;100004.22;;;8.73;100.00
60852;BME280;48553;50.766;2.900;2024-02-21T14:17:58;99994.88;;;8.74;100.00
60852;BME280;48553;50.766;2.900;2024-02-21T14:20:59;99996.50;;;8.75;100.00
60852;BME280;48553;50.766;2.900;2024-02-21T14:23:59;99985.91;;;8.73;100.00
60852;BME280;48553;50.766;2.900;2024-02-21T14:27:03;99981.13;;;8.70;100.00
60852;BME280;48553;50.766;2.900;2024-02-21T14:30:04;99972.13;;;8.70;100.00
60852;BME280;48553;50.766;2.900;2024-02-21T14:33:05;99961.53;;;8.68;100.00
60852;BME280;48553;50.766;2.900;2024-02-21T14:36:08;99963.25;;;8.73;100.00
60852;BME280;48553;50.766;2.900;2024-02-21T14:39:08;99938.19;;;8.71;100.00
60852;BME280;48553;50.766;2.900;2024-02-21T14:42:09;99933.06;;;8.69;100.00
60852;BME280;48553;50.766;2.900;2024-02-21T14:45:12;99924.09;;;8.69;100.00
60852;BME280;48553;50.766;2.900;2024-02-21T14:48:14;99924.09;;;8.69;100.00
60852;BME280;48553;50.766;2.900;2024-02-21T14:51:15;99902.25;;;8.69;100.00
60852;BME280;48553;50.766;2.900;2024-02-21T14:54:15;99900.28;;;8.69;100.00
60852;BME280;48553;50.766;2.900;2024-02-21T14:57:15;99883.91;;;8.69;100.00
60852;BME280;48553;50.766;2.900;2024-02-21T15:00:16;99885.97;;;8.72;100.00
60852;BME280;48553;50.766;2.900;2024-02-21T15:03:17;99885.38;;;8.79;100.00
60852;BME280;48553;50.766;2.900;2024-02-21T15:06:20;99873.56;;;8.75;100.00
60852;BME280;48553;50.766;2.900;2024-02-21T15:09:21;99880.50;;;8.72;100.00
60852;BME280;48553;50.766;2.900;2024-02-21T15:12:21;99864.56;;;8.74;100.00
60852;BME280;48553;50.766;2.900;2024-02-21T15:15:23;99851.69;;;8.75;100.00
60852;BME280;48553;50.766;2.900;2024-02-21T15:18:23;99848.19;;;8.74;100.00
60852;BME280;48553;50.766;2.900;2024-02-21T15:24:27;99857.50;;;8.73;100.00
60852;BME280;48553;50.766;2.900;2024-02-21T15:27:27;99837.91;;;8.71;100.00
60852;BME280;48553;50.766;2.900;2024-02-21T15:30:28;99826.66;;;8.73;100.00
60852;BME280;48553;50.766;2.900;2024-02-21T15:33:31;99824.38;;;8.75;100.00
60852;BME280;48553;50.766;2.900;2024-02-21T15:36:32;99822.69;;;8.70;100.00
60852;BME280;48553;50.766;2.900;2024-02-21T15:39:32;99821.66;;;8.75;100.00
60852;BME280;48553;50.766;2.900;2024-02-21T15:42:33;99813.78;;;8.73;100.00
60852;BME280;48553;50.766;2.900;2024-02-21T15:45:34;99799.34;;;8.73;100.00
60852;BME280;48553;50.766;2.900;2024-02-21T15:48:34;99800.69;;;8.79;100.00
60852;BME280;48553;50.766;2.900;2024-02-21T15:51:35;99793.16;;;8.76;100.00
60852;BME280;48553;50.766;2.900;2024-02-21T15:54:36;99776.34;;;8.74;100.00